sensor_id;sensor_type;location;lat;lon;timestamp;pressure;altitude;pressure_sealevel;temperature;humidity
38630;BME280;24384;51.988;4.644;2023-02-14T00:01:41;103607.69;;;4.88;76.37
38630;BME280;24384;51.988;4.644;2023-02-14T00:04:06;103616.47;;;4.90;77.54
38630;BME280;24384;51.988;4.644;2023-02-14T00:06:32;103610.66;;;4.99;78.58
38630;BME280;24384;51.988;4.644;2023-02-14T00:09:00;103618.97;;;4.87;78.46
38630;BME280;24384;51.988;4.644;2023-02-14T00:11:26;103619.84;;;4.88;78.20
38630;BME280;24384;51.988;4.644;2023-02-14T00:13:51;103608.81;;;4.96;77.19
38630;BME280;24384;51.988;4.644;2023-02-14T00:16:35;103604.25;;;4.91;78.05
38630;BME280;24384;51.988;4.644;2023-02-14T00:19:00;103609.13;;;4.80;79.24
38630;BME280;24384;51.988;4.644;2023-02-14T00:21:33;103603.13;;;4.82;78.55
38630;BME280;24384;51.988;4.644;2023-02-14T00:24:02;103603.78;;;4.77;79.25
38630;BME280;24384;51.988;4.644;2023-02-14T00:26:28;103603.56;;;4.71;78.79
38630;BME280;24384;51.988;4.644;2023-02-14T00:28:53;103602.19;;;4.56;79.66
38630;BME280;24384;51.988;4.644;2023-02-14T00:31:18;103598.69;;;4.56;80.22
38630;BME280;24384;51.988;4.644;2023-02-14T00:33:43;103597.91;;;4.58;79.91
38630;BME280;24384;51.988;4.644;2023-02-14T00:36:09;103599.03;;;4.65;80.44
38630;BME280;24384;51.988;4.644;2023-02-14T00:38:35;103586.16;;;4.71;81.44
38630;BME280;24384;51.988;4.644;2023-02-14T00:41:01;103590.16;;;4.61;82.08
38630;BME280;24384;51.988;4.644;2023-02-14T00:43:26;103587.44;;;4.58;82.25
38630;BME280;24384;51.988;4.644;2023-02-14T00:45:52;103588.03;;;4.50;83.28
38630;BME280;24384;51.988;4.644;2023-02-14T00:48:17;103581.16;;;4.53;84.07
38630;BME280;24384;51.988;4.644;2023-02-14T00:50:42;103585.56;;;4.30;84.77
38630;BME280;24384;51.988;4.644;2023-02-14T00:53:10;103576.94;;;4.33;84.91
38630;BME280;24384;51.988;4.644;2023-02-14T00:55:35;103578.88;;;4.38;84.44
38630;BME280;24384;51.988;4.644;2023-02-14T00:58:00;103572.66;;;4.35;84.53
38630;BME280;24384;51.988;4.644;2023-02-14T01:00:26;103568.09;;;4.29;84.85
38630;BME280;24384;51.988;4.644;2023-02-14T01:02:51;103580.28;;;4.28;85.27
38630;BME280;24384;51.988;4.644;2023-02-14T01:05:16;103577.00;;;4.34;85.79
38630;BME280;24384;51.988;4.644;2023-02-14T01:07:41;103575.03;;;4.28;86.19
38630;BME280;24384;51.988;4.644;2023-02-14T01:10:07;103573.31;;;4.29;85.03
38630;BME280;24384;51.988;4.644;2023-02-14T01:12:32;103567.91;;;4.24;84.12
38630;BME280;24384;51.988;4.644;2023-02-14T01:14:58;103561.16;;;4.29;84.20
38630;BME280;24384;51.988;4.644;2023-02-14T01:17:23;103565.81;;;4.14;84.59
38630;BME280;24384;51.988;4.644;2023-02-14T01:19:51;103568.63;;;3.96;84.92
38630;BME280;24384;51.988;4.644;2023-02-14T01:22:16;103574.72;;;3.97;85.69
38630;BME280;24384;51.988;4.644;2023-02-14T01:24:41;103569.38;;;3.93;85.19
38630;BME280;24384;51.988;4.644;2023-02-14T01:27:07;103577.56;;;4.03;86.15
38630;BME280;24384;51.988;4.644;2023-02-14T01:29:32;103570.53;;;4.00;86.68
38630;BME280;24384;51.988;4.644;2023-02-14T01:31:57;103569.38;;;4.16;86.99
38630;BME280;24384;51.988;4.644;2023-02-14T01:34:22;103558.50;;;4.28;86.48
38630;BME280;24384;51.988;4.644;2023-02-14T01:36:48;103563.13;;;4.37;86.92
38630;BME280;24384;51.988;4.644;2023-02-14T01:39:13;103564.06;;;4.37;85.66
38630;BME280;24384;51.988;4.644;2023-02-14T01:41:41;103565.75;;;4.37;85.92
38630;BME280;24384;51.988;4.644;2023-02-14T01:46:39;103561.66;;;4.19;83.48
38630;BME280;24384;51.988;4.644;2023-02-14T01:49:12;103558.56;;;4.07;82.69
38630;BME280;24384;51.988;4.644;2023-02-14T01:51:45;103560.72;;;3.94;81.13
38630;BME280;24384;51.988;4.644;2023-02-14T01:54:15;103563.75;;;3.83;80.05
38630;BME280;24384;51.988;4.644;2023-02-14T01:56:47;103561.56;;;3.71;79.08
38630;BME280;24384;51.988;4.644;2023-02-14T01:59:16;103571.22;;;3.73;79.45
38630;BME280;24384;51.988;4.644;2023-02-14T02:01:47;103563.63;;;3.80;81.24
38630;BME280;24384;51.988;4.644;2023-02-14T02:04:21;103573.38;;;3.84;82.88
38630;BME280;24384;51.988;4.644;2023-02-14T02:06:51;103571.56;;;3.83;83.68
38630;BME280;24384;51.988;4.644;2023-02-14T02:11:49;103573.91;;;3.31;79.69
38630;BME280;24384;51.988;4.644;2023-02-14T02:14:17;103565.81;;;3.25;83.94
38630;BME280;24384;51.988;4.644;2023-02-14T02:37:01;103563.78;;;3.18;86.78
38630;BME280;24384;51.988;4.644;2023-02-14T02:42:23;103572.97;;;3.29;87.20
38630;BME280;24384;51.988;4.644;2023-02-14T02:45:23;103562.53;;;3.29;87.15
38630;BME280;24384;51.988;4.644;2023-02-14T02:47:55;103554.44;;;3.23;87.52
38630;BME280;24384;51.988;4.644;2023-02-14T02:50:29;103556.56;;;3.11;87.17
38630;BME280;24384;51.988;4.644;2023-02-14T02:53:28;103549.16;;;3.00;86.75
38630;BME280;24384;51.988;4.644;2023-02-14T02:56:04;103550.31;;;3.07;86.75
38630;BME280;24384;51.988;4.644;2023-02-14T03:01:21;103544.69;;;2.98;87.46
38630;BME280;24384;51.988;4.644;2023-02-14T03:03:50;103548.28;;;3.00;88.17
38630;BME280;24384;51.988;4.644;2023-02-14T03:06:36;103541.53;;;3.05;88.41
38630;BME280;24384;51.988;4.644;2023-02-14T03:11:51;103545.34;;;3.13;87.73
38630;BME280;24384;51.988;4.644;2023-02-14T03:14:23;103542.72;;;3.13;87.83
38630;BME280;24384;51.988;4.644;2023-02-14T03:17:21;103543.81;;;2.97;87.69
38630;BME280;24384;51.988;4.644;2023-02-14T03:25:42;103541.53;;;3.05;87.95
38630;BME280;24384;51.988;4.644;2023-02-14T03:28:19;103543.25;;;2.83;87.91
38630;BME280;24384;51.988;4.644;2023-02-14T03:31:02;103540.31;;;2.76;88.48
38630;BME280;24384;51.988;4.644;2023-02-14T03:33:36;103544.25;;;2.87;87.87
38630;BME280;24384;51.988;4.644;2023-02-14T03:36:15;103548.25;;;2.79;87.52
38630;BME280;24384;51.988;4.644;2023-02-14T03:39:02;103545.78;;;2.82;87.18
38630;BME280;24384;51.988;4.644;2023-02-14T03:41:30;103543.47;;;2.68;87.68
38630;BME280;24384;51.988;4.644;2023-02-14T03:44:00;103535.53;;;2.65;87.82
38630;BME280;24384;51.988;4.644;2023-02-14T03:46:37;103534.28;;;2.77;88.13
38630;BME280;24384;51.988;4.644;2023-02-14T03:49:07;103546.19;;;2.91;88.12
38630;BME280;24384;51.988;4.644;2023-02-14T03:51:34;103539.63;;;3.01;88.01
38630;BME280;24384;51.988;4.644;2023-02-14T03:54:02;103538.06;;;3.04;88.09
38630;BME280;24384;51.988;4.644;2023-02-14T03:56:34;103544.28;;;3.08;86.54
38630;BME280;24384;51.988;4.644;2023-02-14T03:59:06;103535.50;;;2.85;85.08
38630;BME280;24384;51.988;4.644;2023-02-14T04:02:03;103540.28;;;2.95;85.66
38630;BME280;24384;51.988;4.644;2023-02-14T04:04:28;103537.00;;;3.01;85.15
38630;BME280;24384;51.988;4.644;2023-02-14T04:06:55;103532.44;;;2.95;84.99
38630;BME280;24384;51.988;4.644;2023-02-14T04:09:20;103541.25;;;2.78;84.50
38630;BME280;24384;51.988;4.644;2023-02-14T04:11:46;103536.56;;;2.69;85.50
38630;BME280;24384;51.988;4.644;2023-02-14T04:14:15;103537.25;;;2.65;86.49
38630;BME280;24384;51.988;4.644;2023-02-14T04:16:40;103531.97;;;2.63;86.79
38630;BME280;24384;51.988;4.644;2023-02-14T04:19:24;103529.75;;;2.73;86.03
38630;BME280;24384;51.988;4.644;2023-02-14T04:21:50;103527.91;;;2.70;87.09
38630;BME280;24384;51.988;4.644;2023-02-14T04:24:16;103527.09;;;2.51;87.21
38630;BME280;24384;51.988;4.644;2023-02-14T04:26:41;103534.38;;;2.59;87.11
38630;BME280;24384;51.988;4.644;2023-02-14T04:29:19;103527.44;;;2.59;87.15
38630;BME280;24384;51.988;4.644;2023-02-14T04:31:44;103530.75;;;2.55;87.01
38630;BME280;24384;51.988;4.644;2023-02-14T04:34:10;103532.31;;;2.51;87.12
38630;BME280;24384;51.988;4.644;2023-02-14T04:36:35;103530.19;;;2.62;86.57
38630;BME280;24384;51.988;4.644;2023-02-14T04:39:00;103536.63;;;2.71;85.90
38630;BME280;24384;51.988;4.644;2023-02-14T04:41:26;103542.59;;;2.48;85.00
38630;BME280;24384;51.988;4.644;2023-02-14T04:43:51;103530.34;;;2.26;86.22
38630;BME280;24384;51.988;4.644;2023-02-14T04:46:16;103534.00;;;2.10;86.34
38630;BME280;24384;51.988;4.644;2023-02-14T04:48:41;103537.41;;;2.09;87.16
38630;BME280;24384;51.988;4.644;2023-02-14T04:51:06;103531.38;;;1.91;87.78
38630;BME280;24384;51.988;4.644;2023-02-14T04:53:32;103532.09;;;1.88;88.10
38630;BME280;24384;51.988;4.644;2023-02-14T04:55:57;103535.19;;;1.79;88.66
38630;BME280;24384;51.988;4.644;2023-02-14T04:58:22;103527.25;;;1.76;89.36
38630;BME280;24384;51.988;4.644;2023-02-14T05:00:47;103528.00;;;1.74;88.94
38630;BME280;24384;51.988;4.644;2023-02-14T05:03:13;103527.09;;;1.73;88.98
38630;BME280;24384;51.988;4.644;2023-02-14T05:05:38;103530.81;;;1.60;88.59
38630;BME280;24384;51.988;4.644;2023-02-14T05:08:03;103528.69;;;1.52;88.80
38630;BME280;24384;51.988;4.644;2023-02-14T05:10:28;103531.75;;;1.43;89.48
38630;BME280;24384;51.988;4.644;2023-02-14T05:12:54;103531.44;;;1.55;89.55
38630;BME280;24384;51.988;4.644;2023-02-14T05:15:19;103529.50;;;1.51;89.18
38630;BME280;24384;51.988;4.644;2023-02-14T05:17:44;103526.38;;;1.58;89.37
38630;BME280;24384;51.988;4.644;2023-02-14T05:20:10;103529.84;;;1.76;89.23
38630;BME280;24384;51.988;4.644;2023-02-14T05:22:35;103530.22;;;1.84;88.82
38630;BME280;24384;51.988;4.644;2023-02-14T05:25:00;103539.50;;;1.79;88.56
38630;BME280;24384;51.988;4.644;2023-02-14T05:27:26;103540.00;;;1.90;88.33
38630;BME280;24384;51.988;4.644;2023-02-14T05:29:51;103537.66;;;1.96;88.21
38630;BME280;24384;51.988;4.644;2023-02-14T05:32:16;103540.56;;;2.02;87.65
38630;BME280;24384;51.988;4.644;2023-02-14T05:34:41;103542.22;;;2.00;87.34
38630;BME280;24384;51.988;4.644;2023-02-14T05:37:07;103527.75;;;2.07;86.41
38630;BME280;24384;51.988;4.644;2023-02-14T05:39:32;103539.09;;;1.89;86.14
38630;BME280;24384;51.988;4.644;2023-02-14T05:41:57;103531.88;;;1.64;86.96
38630;BME280;24384;51.988;4.644;2023-02-14T05:44:22;103530.38;;;1.69;86.75
38630;BME280;24384;51.988;4.644;2023-02-14T05:46:48;103534.06;;;1.74;86.98
38630;BME280;24384;51.988;4.644;2023-02-14T05:49:13;103533.44;;;1.60;86.79
38630;BME280;24384;51.988;4.644;2023-02-14T05:51:40;103531.38;;;1.35;87.45
38630;BME280;24384;51.988;4.644;2023-02-14T05:54:06;103524.38;;;1.34;87.22
38630;BME280;24384;51.988;4.644;2023-02-14T05:56:31;103528.84;;;1.37;87.43
38630;BME280;24384;51.988;4.644;2023-02-14T05:58:56;103532.94;;;1.32;88.30
38630;BME280;24384;51.988;4.644;2023-02-14T06:01:21;103519.44;;;1.21;87.09
38630;BME280;24384;51.988;4.644;2023-02-14T06:03:47;103529.59;;;1.16;87.48
38630;BME280;24384;51.988;4.644;2023-02-14T06:06:12;103525.25;;;0.99;86.97
38630;BME280;24384;51.988;4.644;2023-02-14T06:08:37;103529.56;;;0.98;87.84
38630;BME280;24384;51.988;4.644;2023-02-14T06:11:03;103524.00;;;0.91;88.07
38630;BME280;24384;51.988;4.644;2023-02-14T06:13:28;103530.75;;;0.87;88.56
38630;BME280;24384;51.988;4.644;2023-02-14T06:15:53;103534.38;;;0.91;88.52
38630;BME280;24384;51.988;4.644;2023-02-14T06:18:19;103527.13;;;1.01;88.19
38630;BME280;24384;51.988;4.644;2023-02-14T06:20:44;103523.41;;;0.96;88.85
38630;BME280;24384;51.988;4.644;2023-02-14T06:23:09;103520.97;;;0.99;88.56
38630;BME280;24384;51.988;4.644;2023-02-14T06:25:35;103521.19;;;1.04;88.87
38630;BME280;24384;51.988;4.644;2023-02-14T06:28:00;103525.78;;;1.10;88.41
38630;BME280;24384;51.988;4.644;2023-02-14T06:30:26;103524.63;;;1.21;88.54
38630;BME280;24384;51.988;4.644;2023-02-14T06:32:51;103525.34;;;1.00;87.83
38630;BME280;24384;51.988;4.644;2023-02-14T06:35:17;103520.09;;;1.17;87.63
38630;BME280;24384;51.988;4.644;2023-02-14T06:37:44;103524.25;;;1.13;87.92
38630;BME280;24384;51.988;4.644;2023-02-14T06:40:10;103518.81;;;1.09;88.26
38630;BME280;24384;51.988;4.644;2023-02-14T06:42:37;103525.47;;;1.03;88.55
38630;BME280;24384;51.988;4.644;2023-02-14T06:45:03;103528.31;;;1.08;88.37
38630;BME280;24384;51.988;4.644;2023-02-14T06:47:28;103530.59;;;1.02;88.87
38630;BME280;24384;51.988;4.644;2023-02-14T06:49:54;103524.88;;;0.91;88.45
38630;BME280;24384;51.988;4.644;2023-02-14T06:52:19;103527.22;;;0.68;88.07
38630;BME280;24384;51.988;4.644;2023-02-14T06:54:44;103527.88;;;0.48;89.55
38630;BME280;24384;51.988;4.644;2023-02-14T06:57:10;103531.78;;;0.56;90.67
38630;BME280;24384;51.988;4.644;2023-02-14T06:59:35;103530.22;;;0.76;89.67
38630;BME280;24384;51.988;4.644;2023-02-14T07:02:00;103535.66;;;0.64;90.35
38630;BME280;24384;51.988;4.644;2023-02-14T07:04:25;103539.38;;;0.69;90.36
38630;BME280;24384;51.988;4.644;2023-02-14T07:06:51;103535.19;;;0.55;89.77
38630;BME280;24384;51.988;4.644;2023-02-14T07:09:17;103534.47;;;0.58;90.14
38630;BME280;24384;51.988;4.644;2023-02-14T07:11:43;103531.59;;;0.69;90.45
38630;BME280;24384;51.988;4.644;2023-02-14T07:14:09;103530.56;;;0.66;90.16
38630;BME280;24384;51.988;4.644;2023-02-14T07:16:34;103534.06;;;0.50;89.85
38630;BME280;24384;51.988;4.644;2023-02-14T07:18:59;103532.91;;;0.78;89.50
38630;BME280;24384;51.988;4.644;2023-02-14T07:21:25;103529.31;;;0.76;89.00
38630;BME280;24384;51.988;4.644;2023-02-14T07:23:50;103530.94;;;0.74;88.76
38630;BME280;24384;51.988;4.644;2023-02-14T07:26:15;103523.00;;;0.70;88.57
38630;BME280;24384;51.988;4.644;2023-02-14T07:28:46;103528.25;;;0.72;87.87
38630;BME280;24384;51.988;4.644;2023-02-14T07:31:13;103527.09;;;0.83;88.50
38630;BME280;24384;51.988;4.644;2023-02-14T07:33:38;103538.63;;;0.88;87.72
38630;BME280;24384;51.988;4.644;2023-02-14T07:36:05;103539.34;;;0.86;88.51
38630;BME280;24384;51.988;4.644;2023-02-14T07:38:31;103543.75;;;0.87;87.99
38630;BME280;24384;51.988;4.644;2023-02-14T07:40:56;103541.19;;;0.70;88.22
38630;BME280;24384;51.988;4.644;2023-02-14T07:43:21;103545.34;;;0.85;88.47
38630;BME280;24384;51.988;4.644;2023-02-14T07:45:47;103551.53;;;0.87;88.10
38630;BME280;24384;51.988;4.644;2023-02-14T07:48:13;103548.22;;;1.07;87.63
38630;BME280;24384;51.988;4.644;2023-02-14T07:50:38;103553.22;;;1.21;87.54
38630;BME280;24384;51.988;4.644;2023-02-14T07:53:03;103557.28;;;1.16;87.03
38630;BME280;24384;51.988;4.644;2023-02-14T07:55:28;103542.44;;;1.31;87.03
38630;BME280;24384;51.988;4.644;2023-02-14T07:57:54;103545.34;;;1.37;86.15
38630;BME280;24384;51.988;4.644;2023-02-14T08:00:19;103546.28;;;1.57;85.14
38630;BME280;24384;51.988;4.644;2023-02-14T08:02:45;103547.34;;;1.61;86.04
38630;BME280;24384;51.988;4.644;2023-02-14T08:05:10;103554.25;;;1.60;85.27
38630;BME280;24384;51.988;4.644;2023-02-14T08:07:35;103544.81;;;1.63;84.49
38630;BME280;24384;51.988;4.644;2023-02-14T08:10:00;103540.78;;;1.69;84.57
38630;BME280;24384;51.988;4.644;2023-02-14T08:12:26;103544.09;;;1.85;83.78
38630;BME280;24384;51.988;4.644;2023-02-14T08:15:10;103539.72;;;1.84;83.88
38630;BME280;24384;51.988;4.644;2023-02-14T08:17:55;103533.72;;;2.04;84.24
38630;BME280;24384;51.988;4.644;2023-02-14T08:20:20;103539.28;;;2.12;83.71
38630;BME280;24384;51.988;4.644;2023-02-14T08:22:46;103542.28;;;2.41;83.22
38630;BME280;24384;51.988;4.644;2023-02-14T08:25:11;103529.22;;;2.60;83.03
38630;BME280;24384;51.988;4.644;2023-02-14T08:27:36;103539.28;;;2.93;82.23
38630;BME280;24384;51.988;4.644;2023-02-14T08:30:01;103535.38;;;3.03;81.53
38630;BME280;24384;51.988;4.644;2023-02-14T08:32:27;103543.28;;;3.27;81.19
38630;BME280;24384;51.988;4.644;2023-02-14T08:34:52;103533.25;;;3.59;79.62
38630;BME280;24384;51.988;4.644;2023-02-14T08:37:17;103536.75;;;3.59;79.26
38630;BME280;24384;51.988;4.644;2023-02-14T08:39:43;103529.44;;;3.96;79.05
38630;BME280;24384;51.988;4.644;2023-02-14T08:42:08;103533.78;;;3.96;78.52
38630;BME280;24384;51.988;4.644;2023-02-14T08:44:33;103534.44;;;4.38;78.14
38630;BME280;24384;51.988;4.644;2023-02-14T08:46:59;103524.91;;;4.64;78.17
38630;BME280;24384;51.988;4.644;2023-02-14T08:49:24;103526.75;;;4.93;78.41
38630;BME280;24384;51.988;4.644;2023-02-14T08:51:49;103523.22;;;5.18;77.48
38630;BME280;24384;51.988;4.644;2023-02-14T08:54:14;103519.50;;;5.67;75.34
38630;BME280;24384;51.988;4.644;2023-02-14T08:56:40;103517.81;;;6.62;73.19
38630;BME280;24384;51.988;4.644;2023-02-14T08:59:06;103514.34;;;6.98;71.24
38630;BME280;24384;51.988;4.644;2023-02-14T09:01:31;103515.78;;;7.20;71.05
38630;BME280;24384;51.988;4.644;2023-02-14T09:03:57;103512.03;;;7.88;67.84
38630;BME280;24384;51.988;4.644;2023-02-14T09:06:23;103508.03;;;8.07;68.43
38630;BME280;24384;51.988;4.644;2023-02-14T09:08:48;103518.38;;;7.58;68.85
38630;BME280;24384;51.988;4.644;2023-02-14T09:11:16;103511.91;;;7.42;70.30
38630;BME280;24384;51.988;4.644;2023-02-14T09:13:43;103501.41;;;8.28;67.88
38630;BME280;24384;51.988;4.644;2023-02-14T09:16:11;103495.44;;;8.35;67.72
38630;BME280;24384;51.988;4.644;2023-02-14T09:18:37;103508.56;;;7.48;70.55
38630;BME280;24384;51.988;4.644;2023-02-14T09:21:06;103510.78;;;7.70;71.96
38630;BME280;24384;51.988;4.644;2023-02-14T09:23:32;103505.25;;;7.58;71.00
38630;BME280;24384;51.988;4.644;2023-02-14T09:26:07;103506.06;;;7.54;73.03
38630;BME280;24384;51.988;4.644;2023-02-14T09:28:33;103504.28;;;7.94;71.82
38630;BME280;24384;51.988;4.644;2023-02-14T09:33:35;103510.00;;;7.75;72.46
38630;BME280;24384;51.988;4.644;2023-02-14T09:36:00;103505.06;;;7.90;72.38
38630;BME280;24384;51.988;4.644;2023-02-14T09:38:40;103509.44;;;7.89;72.56
38630;BME280;24384;51.988;4.644;2023-02-14T09:41:13;103510.34;;;7.92;72.87
38630;BME280;24384;51.988;4.644;2023-02-14T09:43:50;103507.59;;;8.28;71.66
38630;BME280;24384;51.988;4.644;2023-02-14T09:46:17;103506.22;;;8.47;71.49
38630;BME280;24384;51.988;4.644;2023-02-14T09:48:46;103499.31;;;8.54;71.61
38630;BME280;24384;51.988;4.644;2023-02-14T09:51:18;103502.03;;;8.60;70.87
38630;BME280;24384;51.988;4.644;2023-02-14T09:54:12;103498.97;;;8.37;71.75
38630;BME280;24384;51.988;4.644;2023-02-14T09:56:53;103500.94;;;8.47;71.68
38630;BME280;24384;51.988;4.644;2023-02-14T09:59:46;103502.47;;;8.85;70.94
38630;BME280;24384;51.988;4.644;2023-02-14T10:05:25;103504.75;;;9.18;69.22
38630;BME280;24384;51.988;4.644;2023-02-14T10:10:48;103490.16;;;10.08;67.19
38630;BME280;24384;51.988;4.644;2023-02-14T10:13:35;103501.47;;;10.85;65.19
38630;BME280;24384;51.988;4.644;2023-02-14T10:16:10;103491.03;;;10.97;65.35
38630;BME280;24384;51.988;4.644;2023-02-14T10:18:42;103483.69;;;12.08;64.13
38630;BME280;24384;51.988;4.644;2023-02-14T10:21:15;103486.44;;;12.73;60.56
38630;BME280;24384;51.988;4.644;2023-02-14T10:23:51;103478.50;;;12.87;58.92
38630;BME280;24384;51.988;4.644;2023-02-14T10:26:27;103481.03;;;13.53;56.88
38630;BME280;24384;51.988;4.644;2023-02-14T10:28:54;103483.16;;;14.50;54.90
38630;BME280;24384;51.988;4.644;2023-02-14T10:31:25;103480.13;;;15.00;51.33
38630;BME280;24384;51.988;4.644;2023-02-14T10:33:56;103468.94;;;15.51;52.29
38630;BME280;24384;51.988;4.644;2023-02-14T10:50:02;103452.66;;;19.55;38.62
38630;BME280;24384;51.988;4.644;2023-02-14T10:52:30;103451.13;;;20.61;37.07
38630;BME280;24384;51.988;4.644;2023-02-14T10:55:04;103450.59;;;19.65;38.97
38630;BME280;24384;51.988;4.644;2023-02-14T10:57:35;103434.16;;;20.87;36.12
38630;BME280;24384;51.988;4.644;2023-02-14T11:00:07;103440.19;;;21.67;35.32
38630;BME280;24384;51.988;4.644;2023-02-14T11:02:42;103442.19;;;22.06;33.47
38630;BME280;24384;51.988;4.644;2023-02-14T11:05:23;103434.88;;;22.95;31.92
38630;BME280;24384;51.988;4.644;2023-02-14T11:07:49;103420.34;;;23.76;28.57
38630;BME280;24384;51.988;4.644;2023-02-14T11:10:16;103427.13;;;21.79;33.10
38630;BME280;24384;51.988;4.644;2023-02-14T11:12:44;103422.59;;;23.48;30.61
38630;BME280;24384;51.988;4.644;2023-02-14T11:17:37;103411.53;;;24.46;28.60
38630;BME280;24384;51.988;4.644;2023-02-14T11:20:21;103409.50;;;25.99;25.47
38630;BME280;24384;51.988;4.644;2023-02-14T11:22:47;103419.78;;;22.07;30.95
38630;BME280;24384;51.988;4.644;2023-02-14T11:25:27;103410.16;;;21.08;34.52
38630;BME280;24384;51.988;4.644;2023-02-14T11:28:04;103408.63;;;21.48;33.50
38630;BME280;24384;51.988;4.644;2023-02-14T11:30:40;103403.88;;;22.65;31.14
38630;BME280;24384;51.988;4.644;2023-02-14T11:33:06;103405.56;;;22.47;30.99
38630;BME280;24384;51.988;4.644;2023-02-14T11:35:37;103408.34;;;22.02;31.76
38630;BME280;24384;51.988;4.644;2023-02-14T11:38:05;103399.03;;;22.32;31.86
38630;BME280;24384;51.988;4.644;2023-02-14T11:40:36;103395.84;;;21.78;33.57
38630;BME280;24384;51.988;4.644;2023-02-14T11:45:41;103373.13;;;22.92;31.77
38630;BME280;24384;51.988;4.644;2023-02-14T11:50:54;103369.13;;;23.40;29.75
38630;BME280;24384;51.988;4.644;2023-02-14T11:53:23;103369.66;;;24.90;28.16
38630;BME280;24384;51.988;4.644;2023-02-14T11:55:51;103359.53;;;25.11;27.30
38630;BME280;24384;51.988;4.644;2023-02-14T11:58:52;103364.03;;;23.34;30.15
38630;BME280;24384;51.988;4.644;2023-02-14T12:01:26;103352.28;;;23.54;28.98
38630;BME280;24384;51.988;4.644;2023-02-14T12:03:56;103359.59;;;22.33;30.67
38630;BME280;24384;51.988;4.644;2023-02-14T12:06:31;103351.31;;;21.51;32.81
38630;BME280;24384;51.988;4.644;2023-02-14T12:09:23;103347.56;;;21.77;32.21
38630;BME280;24384;51.988;4.644;2023-02-14T12:12:00;103338.06;;;23.33;30.94
38630;BME280;24384;51.988;4.644;2023-02-14T12:14:31;103344.00;;;21.76;33.51
38630;BME280;24384;51.988;4.644;2023-02-14T12:17:22;103346.84;;;21.04;33.85
38630;BME280;24384;51.988;4.644;2023-02-14T12:20:03;103346.22;;;19.65;37.14
38630;BME280;24384;51.988;4.644;2023-02-14T12:22:36;103342.84;;;20.40;37.39
38630;BME280;24384;51.988;4.644;2023-02-14T12:25:13;103342.88;;;18.99;38.11
38630;BME280;24384;51.988;4.644;2023-02-14T12:27:50;103334.88;;;19.85;37.39
38630;BME280;24384;51.988;4.644;2023-02-14T12:30:23;103335.84;;;18.61;39.90
38630;BME280;24384;51.988;4.644;2023-02-14T12:32:51;103348.25;;;17.95;41.27
38630;BME280;24384;51.988;4.644;2023-02-14T12:43:37;103321.28;;;19.91;39.21
38630;BME280;24384;51.988;4.644;2023-02-14T12:57:17;103319.25;;;15.99;46.61
38630;BME280;24384;51.988;4.644;2023-02-14T13:05:21;103291.56;;;16.59;44.64
38630;BME280;24384;51.988;4.644;2023-02-14T13:13:50;103290.41;;;15.72;47.22
38630;BME280;24384;51.988;4.644;2023-02-14T13:16:56;103291.53;;;15.56;49.55
38630;BME280;24384;51.988;4.644;2023-02-14T13:19:53;103281.56;;;15.10;50.43
38630;BME280;24384;51.988;4.644;2023-02-14T13:22:22;103276.13;;;15.17;51.72
38630;BME280;24384;51.988;4.644;2023-02-14T13:24:57;103273.09;;;15.45;51.29
38630;BME280;24384;51.988;4.644;2023-02-14T13:27:27;103272.13;;;15.51;50.60
38630;BME280;24384;51.988;4.644;2023-02-14T13:30:04;103275.06;;;14.58;51.24
38630;BME280;24384;51.988;4.644;2023-02-14T13:32:40;103281.84;;;14.01;52.33
38630;BME280;24384;51.988;4.644;2023-02-14T13:35:07;103267.44;;;14.24;51.86
38630;BME280;24384;51.988;4.644;2023-02-14T13:37:33;103270.59;;;13.67;52.89
38630;BME280;24384;51.988;4.644;2023-02-14T13:40:08;103273.22;;;13.68;54.06
38630;BME280;24384;51.988;4.644;2023-02-14T13:48:11;103261.88;;;13.49;52.67
38630;BME280;24384;51.988;4.644;2023-02-14T13:50:49;103259.38;;;13.18;53.96
38630;BME280;24384;51.988;4.644;2023-02-14T13:53:39;103265.63;;;13.03;53.92
38630;BME280;24384;51.988;4.644;2023-02-14T13:58:59;103257.56;;;13.25;54.12
38630;BME280;24384;51.988;4.644;2023-02-14T14:03:58;103260.34;;;13.03;54.59
38630;BME280;24384;51.988;4.644;2023-02-14T14:06:24;103264.69;;;13.15;54.83
38630;BME280;24384;51.988;4.644;2023-02-14T14:08:51;103266.50;;;13.12;56.49
38630;BME280;24384;51.988;4.644;2023-02-14T14:13:58;103259.16;;;13.58;54.59
38630;BME280;24384;51.988;4.644;2023-02-14T14:19:00;103258.47;;;13.24;53.70
38630;BME280;24384;51.988;4.644;2023-02-14T14:21:36;103254.78;;;13.51;54.54
38630;BME280;24384;51.988;4.644;2023-02-14T14:28:59;103243.66;;;14.95;48.42
38630;BME280;24384;51.988;4.644;2023-02-14T14:31:27;103234.31;;;15.30;50.99
38630;BME280;24384;51.988;4.644;2023-02-14T14:33:59;103239.28;;;14.91;51.06
38630;BME280;24384;51.988;4.644;2023-02-14T14:36:25;103237.03;;;15.83;48.91
38630;BME280;24384;51.988;4.644;2023-02-14T14:38:51;103231.47;;;16.45;48.95
38630;BME280;24384;51.988;4.644;2023-02-14T14:41:19;103231.28;;;16.55;46.36
38630;BME280;24384;51.988;4.644;2023-02-14T14:43:45;103227.81;;;17.34;45.95
38630;BME280;24384;51.988;4.644;2023-02-14T14:46:12;103229.72;;;17.65;43.69
38630;BME280;24384;51.988;4.644;2023-02-14T14:51:08;103211.47;;;18.50;46.96
38630;BME280;24384;51.988;4.644;2023-02-14T14:53:46;103214.03;;;18.83;43.65
38630;BME280;24384;51.988;4.644;2023-02-14T14:56:36;103216.06;;;19.61;43.56
38630;BME280;24384;51.988;4.644;2023-02-14T14:59:27;103212.06;;;19.74;39.92
38630;BME280;24384;51.988;4.644;2023-02-14T15:01:53;103212.63;;;19.84;39.96
38630;BME280;24384;51.988;4.644;2023-02-14T15:04:25;103223.41;;;19.82;40.03
38630;BME280;24384;51.988;4.644;2023-02-14T15:06:53;103219.63;;;19.06;41.19
38630;BME280;24384;51.988;4.644;2023-02-14T15:09:22;103214.94;;;19.13;41.75
38630;BME280;24384;51.988;4.644;2023-02-14T15:11:48;103210.50;;;19.12;45.25
38630;BME280;24384;51.988;4.644;2023-02-14T15:14:33;103204.97;;;18.90;43.81